Terminal Aerodrome Forecast
Issued by NWS

Home | Current Version | Previous Version | Text Only | Print | Product List | Glossary On
Versions: 1 2 3 4 5 6 7 8 9 10 11 12 13 14 15
843
FTUS43 KEAX 241128
TAFMKC
TAF
KMKC 241128Z 2412/2512 32007KT P6SM SKC
     FM242100 30007KT P6SM FEW150
     FM250100 25006KT P6SM SCT120=

USA.gov is the U.S. government's official web portal to all federal, state and local government web resources and services.